createdAt,value
2019-04-21T00:01:16.454Z,9.34
2019-04-21T00:03:55.560Z,9.33
2019-04-21T00:07:02.935Z,9.27
2019-04-21T00:09:27.816Z,9.20
2019-04-21T00:11:57.291Z,9.08
2019-04-21T00:14:22.138Z,9.04
2019-04-21T00:16:54.187Z,8.91
2019-04-21T00:19:45.990Z,8.94
2019-04-21T00:22:36.739Z,8.81
2019-04-21T00:25:11.863Z,8.76
2019-04-21T00:27:47.836Z,8.56
2019-04-21T00:30:26.968Z,8.38
2019-04-21T00:32:52.399Z,8.54
2019-04-21T00:35:20.726Z,8.44
2019-04-21T00:38:14.903Z,8.34
2019-04-21T00:40:52.102Z,8.22
2019-04-21T00:43:19.790Z,8.35
2019-04-21T00:45:49.138Z,8.06
2019-04-21T00:48:37.846Z,7.82
2019-04-21T00:53:57.931Z,7.41
2019-04-21T00:56:27.705Z,7.29
2019-04-21T00:59:10.099Z,7.26
2019-04-21T01:01:38.046Z,7.26
2019-04-21T01:04:19.681Z,7.54
2019-04-21T01:06:49.637Z,7.53
2019-04-21T01:09:26.572Z,7.38
2019-04-21T01:12:05.204Z,7.22
2019-04-21T01:14:40.971Z,7.17
2019-04-21T01:17:14.476Z,7.23
2019-04-21T01:19:47.091Z,7.20
2019-04-21T01:22:00.687Z,7.19
2019-04-21T01:24:39.653Z,7.24
2019-04-21T01:27:18.535Z,7.22
2019-04-21T01:30:09.999Z,7.28
2019-04-21T01:32:46.242Z,7.26
2019-04-21T01:35:15.094Z,7.23
2019-04-21T01:37:56.040Z,7.29
2019-04-21T01:40:29.586Z,7.40
2019-04-21T01:43:02.829Z,7.36
2019-04-21T01:45:42.395Z,7.31
2019-04-21T01:48:10.353Z,7.31
2019-04-21T01:50:51.578Z,7.31
2019-04-21T01:53:45.725Z,7.24
2019-04-21T01:56:30.436Z,7.31
2019-04-21T01:58:56.407Z,7.32
2019-04-21T02:01:42.329Z,7.26
2019-04-21T02:04:24.021Z,7.41
2019-04-21T02:06:59.938Z,7.31
2019-04-21T02:09:30.789Z,7.17
2019-04-21T02:12:08.810Z,7.05
2019-04-21T02:14:52.030Z,7.06
2019-04-21T02:17:23.119Z,7.06
2019-04-21T02:19:51.859Z,7.03
2019-04-21T02:22:35.286Z,7.05
2019-04-21T02:25:08.590Z,6.96
2019-04-21T02:27:42.943Z,6.98
2019-04-21T02:30:29.373Z,7.07
2019-04-21T02:35:52.783Z,6.78
2019-04-21T02:40:51.259Z,6.45
2019-04-21T02:43:25.108Z,6.33
2019-04-21T02:46:04.249Z,6.21
2019-04-21T02:48:39.269Z,6.23
2019-04-21T02:51:10.360Z,6.18
2019-04-21T02:54:07.982Z,6.23
2019-04-21T02:56:28.324Z,6.27
2019-04-21T02:59:12.388Z,6.48
2019-04-21T03:09:44.996Z,6.61
2019-04-21T03:12:22.620Z,6.62
2019-04-21T03:15:03.956Z,6.45
2019-04-21T03:23:07.684Z,6.85
2019-04-21T03:25:33.247Z,6.77
2019-04-21T03:31:01.851Z,6.41
2019-04-21T03:33:41.043Z,6.34
2019-04-21T03:36:13.084Z,6.14
2019-04-21T03:38:18.883Z,6.15
2019-04-21T03:40:52.860Z,5.97
2019-04-21T03:43:29.529Z,5.82
2019-04-21T03:45:58.193Z,5.81
2019-04-21T03:48:47.126Z,5.68
2019-04-21T03:51:25.738Z,5.49
2019-04-21T03:53:48.026Z,5.45
2019-04-21T03:56:43.864Z,5.52
2019-04-21T04:05:24.417Z,5.76
2019-04-21T04:07:59.037Z,5.77
2019-04-21T04:10:31.403Z,5.90
2019-04-21T04:13:07.297Z,5.85
2019-04-21T04:15:48.282Z,6.10
2019-04-21T04:18:29.894Z,6.03
2019-04-21T04:20:56.265Z,5.89
2019-04-21T04:23:35.611Z,5.75
2019-04-21T04:28:51.938Z,6.45
2019-04-21T04:31:27.145Z,6.72
2019-04-21T04:42:26.689Z,8.27
2019-04-21T04:49:53.482Z,10.09
2019-04-21T04:52:37.871Z,10.59
2019-04-21T04:55:08.571Z,11.09
2019-04-21T04:57:55.013Z,11.50
2019-04-21T05:00:25.838Z,11.51
2019-04-21T05:02:55.994Z,12.18
2019-04-21T05:05:46.800Z,12.46
2019-04-21T05:13:21.385Z,12.94
2019-04-21T05:15:55.878Z,13.55
2019-04-21T05:18:26.578Z,12.67
2019-04-21T05:21:18.897Z,13.54
2019-04-21T05:23:31.570Z,12.58
2019-04-21T05:25:57.003Z,13.51
2019-04-21T05:28:35.854Z,14.07
2019-04-21T05:31:39.907Z,14.79
2019-04-21T05:36:56.850Z,15.16
2019-04-21T05:39:46.801Z,15.38
2019-04-21T05:42:22.750Z,14.34
2019-04-21T05:45:18.763Z,13.95
2019-04-21T05:48:02.788Z,15.65
2019-04-21T05:50:27.529Z,15.49
2019-04-21T05:53:00.743Z,15.89
2019-04-21T05:55:54.596Z,15.53
2019-04-21T05:58:13.980Z,15.81
2019-04-21T06:03:43.063Z,16.39
2019-04-21T06:06:14.176Z,17.72
2019-04-21T06:08:46.880Z,17.74
2019-04-21T06:11:20.991Z,16.80
2019-04-21T06:14:02.476Z,15.47
2019-04-21T06:16:36.482Z,14.96
2019-04-21T06:19:04.730Z,14.78
2019-04-21T06:21:45.213Z,14.41
2019-04-21T06:24:16.057Z,14.42
2019-04-21T06:29:34.749Z,14.75
2019-04-21T06:32:20.406Z,14.26
2019-04-21T06:34:59.014Z,14.36
2019-04-21T06:37:40.536Z,14.51
2019-04-21T06:42:43.214Z,14.05
2019-04-21T06:45:12.878Z,13.96
2019-04-21T06:47:49.929Z,14.41
2019-04-21T06:50:24.254Z,14.38
2019-04-21T06:53:01.151Z,14.53
2019-04-21T06:55:27.816Z,14.62
2019-04-21T06:58:05.137Z,14.46
2019-04-21T07:00:45.333Z,14.87
2019-04-21T07:03:27.362Z,15.43
2019-04-21T07:06:03.466Z,15.66
2019-04-21T07:08:34.651Z,16.06
2019-04-21T07:11:04.992Z,16.86
2019-04-21T07:13:41.532Z,16.64
2019-04-21T07:16:23.604Z,16.29
2019-04-21T07:19:03.487Z,15.57
2019-04-21T07:21:34.455Z,14.71
2019-04-21T07:24:14.155Z,14.89
2019-04-21T07:26:44.719Z,15.07
2019-04-21T07:29:20.620Z,14.63
2019-04-21T07:32:01.936Z,15.17
2019-04-21T07:36:59.650Z,14.93
2019-04-21T07:39:34.010Z,14.96
2019-04-21T07:42:10.471Z,14.85
2019-04-21T07:44:39.225Z,14.89
2019-04-21T07:47:27.202Z,14.60
2019-04-21T07:50:24.445Z,14.74
2019-04-21T07:52:53.387Z,14.71
2019-04-21T07:58:02.697Z,15.27
2019-04-21T08:00:45.421Z,15.71
2019-04-21T08:03:19.417Z,15.66
2019-04-21T08:05:59.044Z,15.85
2019-04-21T08:08:29.798Z,15.61
2019-04-21T08:11:01.723Z,15.42
2019-04-21T08:13:55.124Z,15.17
2019-04-21T08:16:24.216Z,15.55
2019-04-21T08:19:11.438Z,15.46
2019-04-21T08:21:43.026Z,15.76
2019-04-21T08:24:15.780Z,15.77
2019-04-21T08:26:58.571Z,15.97
2019-04-21T08:29:39.213Z,15.76
2019-04-21T08:34:54.876Z,15.97
2019-04-21T08:37:21.478Z,16.20
2019-04-21T08:40:04.484Z,16.21
2019-04-21T08:42:30.484Z,16.44
2019-04-21T08:45:12.667Z,16.57
2019-04-21T08:47:50.153Z,16.66
2019-04-21T08:50:15.118Z,16.26
2019-04-21T08:52:56.813Z,16.36
2019-04-21T08:55:39.705Z,16.55
2019-04-21T08:58:41.510Z,16.69
2019-04-21T09:01:25.550Z,17.14
2019-04-21T09:04:21.339Z,17.46
2019-04-21T09:09:23.726Z,17.97
2019-04-21T09:12:07.238Z,18.23
2019-04-21T09:14:50.926Z,18.36
2019-04-21T09:17:20.639Z,19.18
2019-04-21T09:20:13.888Z,18.86
2019-04-21T09:22:44.264Z,18.45
2019-04-21T09:25:26.897Z,18.32
2019-04-21T09:27:55.030Z,18.66
2019-04-21T09:30:13.455Z,18.25
2019-04-21T09:32:49.465Z,18.50
2019-04-21T09:35:23.986Z,19.03
2019-04-21T09:38:07.738Z,18.95
2019-04-21T09:40:45.870Z,19.90
2019-04-21T09:43:25.838Z,20.33
2019-04-21T09:45:57.113Z,21.27
2019-04-21T09:48:46.627Z,23.43
2019-04-21T09:51:13.093Z,23.43
2019-04-21T09:54:00.890Z,22.73
2019-04-21T09:56:45.404Z,20.86
2019-04-21T09:59:25.471Z,20.86
2019-04-21T10:02:00.983Z,23.12
2019-04-21T10:04:31.118Z,21.34
2019-04-21T10:07:23.677Z,21.34
2019-04-21T10:10:03.848Z,23.35
2019-04-21T10:12:51.893Z,23.35
2019-04-21T10:15:29.822Z,22.98
2019-04-21T10:18:11.445Z,22.95
2019-04-21T10:21:07.669Z,25.41
2019-04-21T10:23:57.885Z,24.67
2019-04-21T10:26:38.738Z,23.81
2019-04-21T10:29:42.508Z,21.97
2019-04-21T10:32:23.157Z,23.30
2019-04-21T10:35:05.341Z,23.31
2019-04-21T10:38:00.802Z,22.54
2019-04-21T10:40:23.373Z,23.52
2019-04-21T10:42:58.365Z,23.65
2019-04-21T10:45:32.704Z,23.65
2019-04-21T10:48:07.326Z,23.83
2019-04-21T10:51:03.144Z,22.62
2019-04-21T10:53:40.814Z,24.38
2019-04-21T10:56:23.050Z,24.03
2019-04-21T10:58:50.334Z,23.68
2019-04-21T11:01:27.325Z,24.41
2019-04-21T11:04:23.669Z,24.15
2019-04-21T11:06:58.273Z,23.35
2019-04-21T11:09:29.956Z,23.35
2019-04-21T11:12:04.083Z,24.63
2019-04-21T11:14:38.946Z,23.72
2019-04-21T11:17:14.479Z,23.49
2019-04-21T11:19:48.591Z,23.28
2019-04-21T11:22:25.084Z,25.15
2019-04-21T11:24:58.794Z,25.15
2019-04-21T11:27:33.184Z,24.62
2019-04-21T11:30:07.509Z,22.70
2019-04-21T11:32:46.321Z,23.50
2019-04-21T11:35:27.614Z,23.50
2019-04-21T11:38:12.093Z,24.07
2019-04-21T11:40:39.968Z,24.05
2019-04-21T11:43:15.707Z,23.53
2019-04-21T11:45:50.564Z,24.08
2019-04-21T11:48:28.452Z,24.45
2019-04-21T11:51:01.658Z,24.05
2019-04-21T11:53:35.303Z,24.73
2019-04-21T11:56:09.010Z,26.48
2019-04-21T11:58:43.943Z,24.17
2019-04-21T12:01:18.092Z,23.73
2019-04-21T12:03:51.708Z,23.36
2019-04-21T12:06:32.108Z,24.82
2019-04-21T12:09:11.638Z,23.51
2019-04-21T12:11:45.316Z,23.34
2019-04-21T12:14:23.818Z,23.39
2019-04-21T12:16:57.659Z,23.12
2019-04-21T12:19:34.720Z,23.92
2019-04-21T12:22:16.288Z,25.31
2019-04-21T12:24:45.000Z,23.80
2019-04-21T12:27:20.267Z,25.48
2019-04-21T12:30:04.014Z,24.76
2019-04-21T12:32:54.374Z,24.50
2019-04-21T12:35:28.077Z,24.09
2019-04-21T12:38:02.779Z,23.14
2019-04-21T12:40:36.781Z,23.14
2019-04-21T12:43:10.735Z,24.64
2019-04-21T12:45:44.538Z,23.88
2019-04-21T12:48:18.019Z,23.54
2019-04-21T12:50:52.184Z,23.31
2019-04-21T12:53:25.630Z,23.31
2019-04-21T12:56:00.018Z,23.13
2019-04-21T12:58:33.586Z,22.45
2019-04-21T13:01:07.135Z,23.32
2019-04-21T13:03:41.776Z,23.97
2019-04-21T13:06:15.973Z,23.97
2019-04-21T13:08:56.857Z,23.54
2019-04-21T13:11:23.876Z,23.54
2019-04-21T13:13:57.831Z,22.69
2019-04-21T13:16:31.706Z,22.98
2019-04-21T13:19:05.247Z,23.28
2019-04-21T13:21:38.294Z,22.44
2019-04-21T13:24:11.691Z,22.44
2019-04-21T13:26:52.764Z,24.43
2019-04-21T13:29:23.854Z,24.43
2019-04-21T13:31:58.383Z,24.17
2019-04-21T13:34:31.764Z,22.82
2019-04-21T13:37:07.641Z,23.47
2019-04-21T13:40:14.650Z,23.35
2019-04-21T13:42:45.607Z,23.35
2019-04-21T13:45:06.453Z,23.63
2019-04-21T13:47:42.785Z,23.45
2019-04-21T13:50:17.241Z,23.72
2019-04-21T13:52:52.806Z,23.72
2019-04-21T13:55:27.439Z,23.36
2019-04-21T13:58:02.082Z,24.16
2019-04-21T14:00:35.848Z,23.81
2019-04-21T14:03:10.286Z,23.24
2019-04-21T14:05:44.553Z,23.27
2019-04-21T14:08:18.823Z,23.27
2019-04-21T14:10:53.620Z,23.03
2019-04-21T14:13:27.147Z,22.82
2019-04-21T14:16:02.139Z,23.80
2019-04-21T14:18:38.579Z,23.80
2019-04-21T14:21:11.648Z,24.65
2019-04-21T14:23:49.271Z,23.45
2019-04-21T14:26:24.465Z,23.14
2019-04-21T14:28:58.866Z,22.87
2019-04-21T14:31:34.515Z,22.87
2019-04-21T14:34:09.943Z,22.99
2019-04-21T14:36:44.532Z,23.44
2019-04-21T14:39:18.544Z,23.02
2019-04-21T14:41:52.385Z,23.02
2019-04-21T14:44:26.989Z,22.92
2019-04-21T14:47:23.106Z,22.77
2019-04-21T14:50:22.262Z,23.07
2019-04-21T14:53:29.925Z,23.07
2019-04-21T14:56:08.823Z,22.80
2019-04-21T14:58:46.876Z,22.80
2019-04-21T15:01:20.007Z,22.62
2019-04-21T15:03:52.727Z,22.62
2019-04-21T15:06:25.865Z,22.82
2019-04-21T15:09:00.742Z,22.82
2019-04-21T15:11:38.101Z,23.26
2019-04-21T15:14:11.723Z,23.26
2019-04-21T15:16:45.324Z,22.58
2019-04-21T15:19:18.525Z,22.58
2019-04-21T15:21:52.395Z,22.65
2019-04-21T15:24:26.607Z,22.65
2019-04-21T15:27:01.005Z,22.73
2019-04-21T15:29:35.015Z,22.70
2019-04-21T15:32:08.946Z,22.07
2019-04-21T15:34:42.587Z,21.96
2019-04-21T15:37:15.821Z,21.95
2019-04-21T15:39:50.755Z,21.86
2019-04-21T15:42:24.781Z,21.88
2019-04-21T15:44:58.880Z,21.70
2019-04-21T15:47:33.809Z,21.85
2019-04-21T15:50:12.615Z,21.98
2019-04-21T15:52:43.629Z,21.97
2019-04-21T15:55:37.035Z,21.83
2019-04-21T15:58:24.792Z,21.89
2019-04-21T16:01:22.758Z,22.02
2019-04-21T16:03:58.767Z,21.75
2019-04-21T16:06:31.956Z,21.53
2019-04-21T16:09:08.410Z,21.49
2019-04-21T16:11:44.263Z,21.69
2019-04-21T16:14:18.664Z,21.84
2019-04-21T16:16:53.681Z,21.49
2019-04-21T16:19:27.344Z,21.32
2019-04-21T16:22:01.107Z,21.38
2019-04-21T16:24:35.628Z,21.34
2019-04-21T16:27:11.081Z,21.47
2019-04-21T16:29:45.756Z,21.24
2019-04-21T16:32:21.419Z,21.24
2019-04-21T16:35:01.543Z,21.15
2019-04-21T16:37:30.115Z,21.23
2019-04-21T16:40:03.443Z,21.04
2019-04-21T16:42:38.451Z,21.02
2019-04-21T16:45:12.718Z,20.91
2019-04-21T16:47:48.396Z,20.86
2019-04-21T16:50:23.577Z,20.89
2019-04-21T16:53:16.460Z,20.80
2019-04-21T16:55:59.833Z,20.82
2019-04-21T16:58:40.906Z,20.64
2019-04-21T17:01:22.081Z,20.62
2019-04-21T17:03:56.427Z,20.53
2019-04-21T17:06:29.489Z,20.49
2019-04-21T17:09:05.027Z,20.35
2019-04-21T17:11:41.540Z,20.30
2019-04-21T17:14:31.188Z,20.25
2019-04-21T17:17:16.059Z,20.22
2019-04-21T17:19:29.828Z,20.17
2019-04-21T17:22:01.780Z,20.12
2019-04-21T17:24:35.241Z,20.10
2019-04-21T17:27:09.093Z,20.08
2019-04-21T17:29:43.049Z,20.05
2019-04-21T17:32:18.362Z,19.92
2019-04-21T17:34:52.310Z,19.86
2019-04-21T17:37:27.280Z,19.69
2019-04-21T17:40:04.892Z,19.69
2019-04-21T17:42:44.992Z,19.62
2019-04-21T17:45:13.204Z,19.50
2019-04-21T17:47:54.432Z,19.46
2019-04-21T17:50:43.601Z,19.43
2019-04-21T17:53:26.507Z,19.32
2019-04-21T17:56:18.790Z,19.24
2019-04-21T17:58:52.920Z,19.16
2019-04-21T18:01:25.328Z,19.04
2019-04-21T18:04:03.628Z,19.00
2019-04-21T18:06:41.013Z,18.94
2019-04-21T18:09:28.598Z,18.83
2019-04-21T18:11:57.822Z,18.72
2019-04-21T18:14:20.234Z,18.59
2019-04-21T18:16:53.526Z,18.52
2019-04-21T18:19:30.995Z,18.50
2019-04-21T18:22:23.984Z,18.38
2019-04-21T18:25:05.789Z,18.30
2019-04-21T18:27:34.398Z,18.19
2019-04-21T18:31:10.321Z,18.10
2019-04-21T18:34:08.555Z,18.01
2019-04-21T18:36:49.862Z,17.95
2019-04-21T18:39:53.671Z,17.87
2019-04-21T18:43:05.557Z,17.81
2019-04-21T18:46:13.562Z,17.75
2019-04-21T18:48:21.950Z,17.63
2019-04-21T18:51:10.328Z,17.63
2019-04-21T18:54:14.889Z,17.55
2019-04-21T18:56:33.788Z,17.47
2019-04-21T18:59:08.864Z,17.47
2019-04-21T19:01:50.537Z,17.33
2019-04-21T19:04:20.486Z,17.29
